Time;durP1;ratioP1;P1;durP2;ratioP2;P2;SDS_P1;SDS_P2;PMS_P1;PMS_P2;Temp;Humidity;BMP_temperature;BMP_pressure;BME280_temperature;BME280_humidity;BME280_pressure;Samples;Min_cycle;Max_cycle;Signal;HPM_P1;HPM_P2
2022/03/15 00:00:22;;;;;;;12.48;5.95;;;;;;;4.34;100.00;101748.97;5092307;28;20032;-63
2022/03/15 00:02:49;;;;;;;9.32;5.93;;;;;;;4.36;100.00;101749.00;5093128;28;20032;-63
2022/03/15 00:05:15;;;;;;;12.85;6.80;;;;;;;4.38;100.00;101749.84;5092441;28;20028;-63
2022/03/15 00:07:40;;;;;;;9.77;5.43;;;;;;;4.36;100.00;101747.22;5092356;28;20024;-63
2022/03/15 00:10:06;;;;;;;12.10;5.60;;;;;;;4.32;100.00;101737.72;5092255;28;20073;-63
2022/03/15 00:12:32;;;;;;;10.38;6.05;;;;;;;4.29;100.00;101742.91;5088207;28;20043;-62
2022/03/15 00:14:58;;;;;;;8.32;5.20;;;;;;;4.24;100.00;101736.88;5091893;28;20019;-62
2022/03/15 00:17:23;;;;;;;9.85;4.90;;;;;;;4.21;100.00;101733.41;5091038;28;20126;-61
2022/03/15 00:19:49;;;;;;;14.60;5.95;;;;;;;4.19;100.00;101735.16;5092012;28;20031;-62
2022/03/15 00:22:15;;;;;;;13.90;7.10;;;;;;;4.16;100.00;101730.81;5091181;28;20470;-62
2022/03/15 00:24:42;;;;;;;10.80;7.10;;;;;;;4.16;100.00;101735.16;5091286;28;20067;-61
2022/03/15 00:27:10;;;;;;;21.50;7.03;;;;;;;4.13;100.00;101736.88;5092156;28;20394;-62
2022/03/15 00:29:35;;;;;;;12.10;7.00;;;;;;;4.11;100.00;101737.78;5093221;28;20028;-63
2022/03/15 00:32:01;;;;;;;22.08;12.18;;;;;;;4.11;100.00;101748.16;5093327;28;20152;-62
2022/03/15 00:34:26;;;;;;;27.67;12.35;;;;;;;4.10;100.00;101742.09;5093464;28;20382;-62
2022/03/15 00:36:52;;;;;;;16.88;8.25;;;;;;;4.06;100.00;101739.50;5090100;28;20031;-62
2022/03/15 00:39:17;;;;;;;14.35;7.63;;;;;;;4.03;100.00;101742.97;5093420;28;20020;-61
2022/03/15 00:41:43;;;;;;;17.60;9.68;;;;;;;3.98;100.00;101736.06;5094095;28;20031;-62
2022/03/15 00:44:09;;;;;;;16.50;8.40;;;;;;;4.00;100.00;101743.00;5109449;28;20036;-62
2022/03/15 00:46:34;;;;;;;13.23;6.78;;;;;;;3.98;100.00;101734.34;5093115;28;20028;-61
2022/03/15 00:49:00;;;;;;;10.85;6.05;;;;;;;3.98;100.00;101746.47;5074271;28;20097;-61
2022/03/15 00:51:27;;;;;;;9.43;6.15;;;;;;;3.93;100.00;101743.88;5092304;28;20036;-62
2022/03/15 00:53:52;;;;;;;15.32;6.57;;;;;;;3.93;100.00;101738.66;5091707;28;20074;-62
2022/03/15 00:56:19;;;;;;;10.35;6.05;;;;;;;3.91;100.00;101748.22;5089666;28;20024;-62
2022/03/15 00:58:44;;;;;;;12.20;6.03;;;;;;;3.89;100.00;101742.13;5092933;28;20035;-62
2022/03/15 01:01:10;;;;;;;13.07;5.95;;;;;;;3.90;100.00;101743.88;5093357;28;20028;-62
2022/03/15 01:03:35;;;;;;;8.35;5.13;;;;;;;3.90;100.00;101738.66;5092954;28;20024;-62
2022/03/15 01:06:00;;;;;;;13.57;5.93;;;;;;;3.91;100.00;101737.81;5092945;28;20024;-61
2022/03/15 01:08:26;;;;;;;8.35;5.18;;;;;;;3.90;100.00;101733.47;5092136;28;20019;-61
2022/03/15 01:10:51;;;;;;;7.35;4.68;;;;;;;3.86;100.00;101734.34;5091328;28;20498;-62
2022/03/15 01:13:17;;;;;;;12.68;6.43;;;;;;;3.85;100.00;101735.19;5093044;28;20443;-62
2022/03/15 01:15:43;;;;;;;8.30;5.63;;;;;;;3.85;100.00;101730.00;5084877;28;20126;-62
2022/03/15 01:18:09;;;;;;;13.48;6.50;;;;;;;3.83;100.00;101726.53;5092706;28;20490;-62
2022/03/15 01:20:34;;;;;;;11.38;5.68;;;;;;;3.68;100.00;101698.00;5092505;28;20531;-62
2022/03/15 01:23:00;;;;;;;11.80;6.38;;;;;;;3.85;100.00;101719.59;5092383;28;20032;-62
2022/03/15 01:25:25;;;;;;;10.95;6.40;;;;;;;3.84;100.00;101717.88;5091927;28;20032;-61
2022/03/15 01:27:52;;;;;;;11.30;6.35;;;;;;;3.85;100.00;101721.34;5092099;28;20032;-62
2022/03/15 01:30:19;;;;;;;11.00;5.95;;;;;;;3.85;100.00;101721.34;5085989;28;20109;-62
2022/03/15 01:32:44;;;;;;;16.00;7.25;;;;;;;3.85;100.00;101713.56;5091176;28;20103;-62
2022/03/15 01:35:10;;;;;;;12.05;6.35;;;;;;;3.86;100.00;101716.13;5091354;28;20035;-61
2022/03/15 01:37:35;;;;;;;10.43;6.22;;;;;;;3.85;100.00;101714.41;5090484;28;20028;-61
2022/03/15 01:40:01;;;;;;;11.70;5.70;;;;;;;3.85;100.00;101705.75;5092247;28;20027;-61
2022/03/15 01:42:26;;;;;;;9.63;5.35;;;;;;;3.85;100.00;101711.78;5091967;28;20058;-62
2022/03/15 01:44:52;;;;;;;9.25;5.45;;;;;;;3.84;100.00;101707.50;5091724;28;20484;-62
2022/03/15 01:47:17;;;;;;;8.70;5.22;;;;;;;3.87;100.00;101704.88;5107318;28;20028;-62
2022/03/15 01:49:43;;;;;;;9.15;5.85;;;;;;;3.85;100.00;101709.19;5086720;28;20029;-61
2022/03/15 01:52:10;;;;;;;9.50;5.53;;;;;;;3.84;100.00;101704.88;5091895;28;20032;-62
2022/03/15 01:54:36;;;;;;;10.00;5.40;;;;;;;3.85;100.00;101701.41;5092261;28;20493;-62
2022/03/15 01:57:03;;;;;;;9.75;6.03;;;;;;;3.82;100.00;101693.59;5092142;28;20024;-62
2022/03/15 01:59:28;;;;;;;9.15;5.55;;;;;;;3.83;100.00;101694.47;5092623;28;20020;-62
2022/03/15 02:01:54;;;;;;;8.50;5.55;;;;;;;3.84;100.00;101691.91;5092630;28;20031;-62
2022/03/15 02:04:19;;;;;;;13.43;5.43;;;;;;;3.84;100.00;101691.91;5073693;28;20492;-62
2022/03/15 02:06:45;;;;;;;7.32;5.35;;;;;;;3.84;100.00;101691.91;5073581;28;20512;-62
2022/03/15 02:09:12;;;;;;;9.90;5.10;;;;;;;3.84;100.00;101689.28;5070823;28;20079;-62
2022/03/15 02:11:39;;;;;;;13.50;5.63;;;;;;;3.84;100.00;101686.69;5053078;28;20028;-62
2022/03/15 02:14:05;;;;;;;11.15;6.07;;;;;;;3.85;100.00;101678.00;5078695;28;20470;-62
2022/03/15 02:16:31;;;;;;;16.77;6.30;;;;;;;3.84;100.00;101680.63;5091126;28;20035;-61
2022/03/15 02:18:57;;;;;;;9.05;5.80;;;;;;;3.85;100.00;101674.56;5090921;28;20031;-62
2022/03/15 02:21:23;;;;;;;9.32;5.70;;;;;;;3.85;100.00;101670.19;5085010;28;20031;-62
2022/03/15 02:23:49;;;;;;;10.15;6.20;;;;;;;3.85;100.00;101662.41;5081600;28;20877;-62
2022/03/15 02:26:16;;;;;;;15.90;6.10;;;;;;;3.85;100.00;101667.59;5091489;28;20023;-62
2022/03/15 02:28:41;;;;;;;15.35;7.30;;;;;;;3.86;100.00;101664.16;5090667;28;20027;-62
2022/03/15 02:31:07;;;;;;;14.32;7.15;;;;;;;3.85;100.00;101651.16;5090849;28;20477;-62
2022/03/15 02:33:32;;;;;;;13.57;7.32;;;;;;;3.89;100.00;101655.47;5090269;28;20028;-62
2022/03/15 02:35:58;;;;;;;15.25;6.70;;;;;;;3.90;100.00;101658.06;5090303;28;20020;-61
2022/03/15 02:38:23;;;;;;;9.13;6.18;;;;;;;3.90;100.00;101650.28;5089761;28;20028;-62
2022/03/15 02:40:48;;;;;;;14.32;6.55;;;;;;;3.90;100.00;101645.09;5090072;28;20051;-62
2022/03/15 02:43:14;;;;;;;11.73;7.47;;;;;;;3.91;100.00;101636.41;5090627;28;20119;-61
2022/03/15 02:45:40;;;;;;;10.57;6.20;;;;;;;3.87;100.00;101632.09;5090051;28;20024;-61
2022/03/15 02:48:05;;;;;;;12.93;6.18;;;;;;;3.90;100.00;101631.22;5091011;28;20550;-61
2022/03/15 02:50:30;;;;;;;10.68;5.90;;;;;;;3.89;100.00;101632.94;5090585;28;20074;-62
2022/03/15 02:52:56;;;;;;;9.90;6.22;;;;;;;3.90;100.00;101629.47;5090066;28;20052;-61
2022/03/15 02:55:21;;;;;;;13.48;5.72;;;;;;;3.91;100.00;101626.03;5090783;28;20101;-62
2022/03/15 02:57:48;;;;;;;11.55;6.90;;;;;;;3.92;100.00;101622.53;5090979;28;20081;-62
2022/03/15 03:00:15;;;;;;;14.30;6.63;;;;;;;3.93;100.00;101607.78;5093011;28;20102;-62
2022/03/15 03:02:41;;;;;;;15.82;5.97;;;;;;;3.89;100.00;101606.94;5094659;28;20028;-62
2022/03/15 03:05:06;;;;;;;13.63;6.13;;;;;;;3.91;100.00;101607.81;5094572;28;20073;-61
2022/03/15 03:07:34;;;;;;;12.25;7.35;;;;;;;3.91;100.00;101614.75;5089757;28;20036;-62
2022/03/15 03:10:00;;;;;;;13.93;7.53;;;;;;;3.81;100.00;101597.47;5077860;28;20028;-61
2022/03/15 03:12:27;;;;;;;18.25;7.68;;;;;;;3.87;100.00;101605.22;5088284;28;20047;-61
2022/03/15 03:14:52;;;;;;;13.75;7.78;;;;;;;3.94;100.00;101609.53;5095054;28;20024;-62
2022/03/15 03:17:18;;;;;;;11.23;6.60;;;;;;;3.94;100.00;101604.34;5094390;28;20031;-61
2022/03/15 03:19:44;;;;;;;10.70;6.07;;;;;;;3.91;100.00;101600.03;5094530;28;20020;-61
2022/03/15 03:22:10;;;;;;;20.85;7.05;;;;;;;3.89;100.00;101606.94;5094053;28;20130;-61
2022/03/15 03:24:35;;;;;;;12.23;6.95;;;;;;;3.93;100.00;101602.59;5076125;28;20032;-61
2022/03/15 03:27:01;;;;;;;12.30;7.60;;;;;;;3.94;100.00;101602.59;5094404;28;20034;-62
2022/03/15 03:29:28;;;;;;;13.80;8.27;;;;;;;3.99;100.00;101598.25;5094857;28;20494;-62
2022/03/15 03:31:54;;;;;;;13.63;6.50;;;;;;;3.97;100.00;101586.13;5093804;28;20059;-61
2022/03/15 03:34:20;;;;;;;17.38;7.50;;;;;;;4.07;100.00;101596.47;5092799;28;20084;-62
2022/03/15 03:36:45;;;;;;;13.73;7.28;;;;;;;4.15;100.00;101588.66;5087613;28;20470;-61
2022/03/15 03:39:11;;;;;;;12.40;7.20;;;;;;;4.18;100.00;101587.75;5092452;28;20019;-62
2022/03/15 03:41:37;;;;;;;9.50;6.90;;;;;;;4.21;100.00;101593.81;5090476;28;20402;-62
2022/03/15 03:44:03;;;;;;;15.02;7.88;;;;;;;4.24;100.00;101592.94;5090941;28;20020;-62
2022/03/15 03:46:28;;;;;;;15.35;6.93;;;;;;;4.27;100.00;101587.72;5094068;28;20032;-62
2022/03/15 03:48:54;;;;;;;12.65;7.32;;;;;;;4.28;100.00;101590.31;5075844;28;20035;-62
2022/03/15 03:51:20;;;;;;;10.00;5.80;;;;;;;4.29;100.00;101585.97;5093368;28;20422;-63
2022/03/15 03:53:45;;;;;;;12.10;6.80;;;;;;;4.30;100.00;101585.97;5066877;28;20077;-62
2022/03/15 03:56:11;;;;;;;10.57;6.60;;;;;;;4.31;100.00;101582.50;5093784;28;20032;-62
2022/03/15 03:58:36;;;;;;;9.95;5.40;;;;;;;4.31;100.00;101576.41;5094601;28;20051;-62
2022/03/15 04:01:02;;;;;;;9.75;5.93;;;;;;;4.25;100.00;101571.25;5094488;28;20103;-62
2022/03/15 04:03:31;;;;;;;11.73;6.07;;;;;;;4.27;100.00;101572.09;5094136;28;20386;-62
2022/03/15 04:05:57;;;;;;;11.80;6.15;;;;;;;4.28;100.00;101577.31;5093687;28;20028;-62
2022/03/15 04:08:24;;;;;;;11.50;7.03;;;;;;;4.28;100.00;101579.91;5094021;28;20497;-62
2022/03/15 04:10:50;;;;;;;14.10;6.60;;;;;;;4.27;100.00;101582.50;5092480;28;20024;-62
2022/03/15 04:13:18;;;;;;;14.93;5.80;;;;;;;4.25;100.00;101573.84;5093191;28;20012;-62
2022/03/15 04:15:44;;;;;;;8.73;6.22;;;;;;;4.27;100.00;101577.31;5109245;28;20089;-62
2022/03/15 04:18:10;;;;;;;8.68;6.10;;;;;;;4.19;100.00;101571.31;5093713;28;20106;-62
2022/03/15 04:20:36;;;;;;;14.32;6.95;;;;;;;4.26;100.00;101575.59;5090491;28;20103;-62
2022/03/15 04:23:01;;;;;;;13.88;5.68;;;;;;;4.23;100.00;101573.84;5093525;28;20107;-63
2022/03/15 04:25:27;;;;;;;13.18;6.18;;;;;;;4.20;100.00;101570.41;5093479;28;20029;-62
2022/03/15 04:27:56;;;;;;;9.70;5.78;;;;;;;4.18;100.00;101569.56;5093124;28;20031;-62
2022/03/15 04:30:22;;;;;;;7.95;5.90;;;;;;;4.08;100.00;101551.41;5093162;28;20093;-62
2022/03/15 04:32:48;;;;;;;8.20;6.05;;;;;;;4.17;100.00;101568.69;5092635;28;20110;-63
2022/03/15 04:35:13;;;;;;;10.82;5.78;;;;;;;4.15;100.00;101572.19;5092566;28;20103;-62
2022/03/15 04:37:39;;;;;;;9.43;5.55;;;;;;;4.12;100.00;101563.50;5093393;28;20028;-62
2022/03/15 04:40:07;;;;;;;10.07;5.65;;;;;;;4.08;100.00;101559.22;5093798;28;20026;-62
2022/03/15 04:42:32;;;;;;;10.57;5.80;;;;;;;4.08;100.00;101559.22;5093379;28;20425;-62
2022/03/15 04:44:57;;;;;;;11.00;6.28;;;;;;;4.07;100.00;101554.00;5093378;28;20022;-62
2022/03/15 04:47:23;;;;;;;11.77;5.88;;;;;;;4.06;100.00;101553.13;5091641;28;20039;-62
2022/03/15 04:49:48;;;;;;;9.98;6.82;;;;;;;4.06;100.00;101553.13;5093443;28;20016;-62
2022/03/15 04:52:17;;;;;;;9.02;5.88;;;;;;;4.07;100.00;101552.28;5092701;28;20031;-62
2022/03/15 04:54:43;;;;;;;10.52;6.22;;;;;;;4.07;100.00;101548.81;5091097;28;20032;-62
2022/03/15 04:57:08;;;;;;;10.07;6.20;;;;;;;4.06;100.00;101550.53;5091767;28;20043;-62
2022/03/15 04:59:34;;;;;;;9.55;5.97;;;;;;;4.06;100.00;101547.06;5092643;28;20089;-62
2022/03/15 05:01:59;;;;;;;10.77;6.68;;;;;;;4.05;100.00;101546.22;5092552;28;20099;-62
2022/03/15 05:04:24;;;;;;;9.68;5.82;;;;;;;4.06;100.00;101552.25;5091536;28;20408;-62
2022/03/15 05:06:50;;;;;;;9.23;5.50;;;;;;;4.07;100.00;101543.59;5091572;28;20031;-62
2022/03/15 05:09:15;;;;;;;11.70;6.65;;;;;;;4.05;100.00;101541.03;5091827;28;20024;-62
2022/03/15 05:11:47;;;;;;;16.73;6.57;;;;;;;4.05;100.00;101533.22;5092269;28;20050;-62
2022/03/15 05:14:13;;;;;;;17.08;6.55;;;;;;;4.03;100.00;101532.34;5093327;28;20048;-62
2022/03/15 05:16:38;;;;;;;15.90;6.30;;;;;;;4.01;100.00;101536.72;5074228;28;20106;-62
2022/03/15 05:19:03;;;;;;;13.50;6.40;;;;;;;4.02;100.00;101532.38;5092956;28;20103;-62
2022/03/15 05:21:29;;;;;;;10.48;5.90;;;;;;;4.02;100.00;101525.41;5092653;28;20051;-62
2022/03/15 05:23:55;;;;;;;12.25;5.85;;;;;;;4.01;100.00;101523.72;5092108;28;20028;-63
2022/03/15 05:26:21;;;;;;;9.48;6.47;;;;;;;4.01;100.00;101523.72;5092735;28;20074;-62
2022/03/15 05:28:49;;;;;;;11.13;5.68;;;;;;;4.00;100.00;101521.09;5074455;28;20031;-63
2022/03/15 05:31:15;;;;;;;10.60;5.90;;;;;;;4.02;100.00;101519.38;5082276;28;20114;-62
2022/03/15 05:33:41;;;;;;;8.75;6.20;;;;;;;3.98;100.00;101507.25;5074231;28;20484;-62
2022/03/15 05:36:06;;;;;;;10.65;5.78;;;;;;;4.03;100.00;101521.09;5091995;28;20111;-62
2022/03/15 05:38:31;;;;;;;9.05;5.57;;;;;;;4.04;100.00;101518.50;5091294;28;20027;-62
2022/03/15 05:40:57;;;;;;;10.25;6.22;;;;;;;4.05;100.00;101514.16;5073775;28;20020;-62
2022/03/15 05:43:22;;;;;;;9.68;6.10;;;;;;;4.04;100.00;101518.50;5092020;28;20538;-62
2022/03/15 05:45:48;;;;;;;13.23;5.18;;;;;;;4.02;100.00;101512.41;5092734;28;20028;-62
2022/03/15 05:48:14;;;;;;;11.52;5.82;;;;;;;4.02;100.00;101507.22;5093225;28;20405;-62
2022/03/15 05:50:39;;;;;;;11.40;6.25;;;;;;;4.00;100.00;101505.50;5089428;28;20034;-62
2022/03/15 05:53:05;;;;;;;14.25;6.40;;;;;;;4.06;100.00;101501.13;5080695;28;20035;-62
2022/03/15 05:55:36;;;;;;;10.85;6.28;;;;;;;4.10;100.00;101497.66;5089631;28;20035;-62
2022/03/15 05:58:02;;;;;;;10.10;5.90;;;;;;;4.13;100.00;101500.22;5090515;28;20032;-62
2022/03/15 06:00:28;;;;;;;9.02;5.95;;;;;;;4.08;100.00;101489.00;5090182;28;20023;-62
2022/03/15 06:02:54;;;;;;;9.50;6.05;;;;;;;4.17;100.00;101502.81;5093167;28;20027;-62
2022/03/15 06:05:19;;;;;;;17.73;7.50;;;;;;;4.21;100.00;101500.19;5092343;28;20065;-62
2022/03/15 06:07:50;;;;;;;11.75;6.43;;;;;;;4.24;100.00;101499.28;5092510;28;20098;-62
2022/03/15 06:10:17;;;;;;;13.60;7.13;;;;;;;4.25;100.00;101490.63;5092377;28;20062;-62
2022/03/15 06:12:43;;;;;;;12.82;6.95;;;;;;;4.34;100.00;101498.34;5093174;28;20020;-62
2022/03/15 06:15:10;;;;;;;11.18;6.70;;;;;;;4.37;100.00;101500.94;5092794;28;20077;-62
2022/03/15 06:17:45;;;;;;;11.63;7.18;;;;;;;4.43;100.00;101500.88;5091920;28;20474;-62
2022/03/15 06:20:14;;;;;;;12.43;6.38;;;;;;;4.48;100.00;101500.00;5092296;28;20508;-62
2022/03/15 06:22:39;;;;;;;11.13;6.22;;;;;;;4.53;100.00;101497.31;5073941;28;20024;-63
2022/03/15 06:25:05;;;;;;;7.90;5.78;;;;;;;4.44;100.00;101471.38;5083069;28;20024;-62
2022/03/15 06:27:31;;;;;;;10.65;6.90;;;;;;;4.60;100.00;101491.19;5092007;28;20036;-62
2022/03/15 06:29:57;;;;;;;10.05;5.88;;;;;;;4.63;100.00;101493.78;5091857;28;20024;-62
2022/03/15 06:32:22;;;;;;;12.75;6.13;;;;;;;4.67;100.00;101499.81;5086949;28;20031;-62
2022/03/15 06:34:48;;;;;;;9.32;5.55;;;;;;;4.74;100.00;101497.16;5067091;28;20032;-62
2022/03/15 06:37:13;;;;;;;13.40;6.93;;;;;;;4.78;100.00;101492.78;5090493;28;20128;-62
2022/03/15 06:39:39;;;;;;;9.93;6.30;;;;;;;4.81;100.00;101498.84;5090024;28;20774;-62
2022/03/15 06:42:11;;;;;;;12.65;6.53;;;;;;;4.86;100.00;101497.06;5089518;28;20060;-63
2022/03/15 06:44:37;;;;;;;11.68;6.80;;;;;;;4.83;100.00;101483.22;5073802;28;20021;-62
2022/03/15 06:47:03;;;;;;;16.63;5.93;;;;;;;4.95;100.00;101494.38;5029859;28;20097;-61
2022/03/15 06:49:28;;;;;;;8.98;5.80;;;;;;;4.92;100.00;101483.13;5047347;28;20032;-61
2022/03/15 06:51:53;;;;;;;12.55;6.50;;;;;;;5.08;100.00;101498.56;5047748;28;20026;-61
2022/03/15 06:54:19;;;;;;;13.00;6.32;;;;;;;5.14;100.00;101498.50;5047999;28;20023;-62
2022/03/15 06:56:44;;;;;;;11.77;5.82;;;;;;;5.19;100.00;101500.22;5047518;28;20857;-61
2022/03/15 06:59:09;;;;;;;9.65;5.47;;;;;;;5.26;100.00;101496.66;5047961;28;20031;-61
2022/03/15 07:01:35;;;;;;;11.20;5.25;;;;;;;5.36;100.00;101499.16;5046868;28;20020;-61
2022/03/15 07:04:00;;;;;;;8.90;5.25;;;;;;;5.41;100.00;101497.34;5047775;28;20130;-62
2022/03/15 07:06:25;;;;;;;11.10;5.97;;;;;;;5.48;100.00;101504.22;5046719;28;20081;-62
2022/03/15 07:08:51;;;;;;;11.93;5.72;;;;;;;5.54;100.00;101504.13;5045550;28;20063;-62
2022/03/15 07:11:16;;;;;;;8.75;5.43;;;;;;;5.60;100.00;101503.22;5030101;28;20028;-62
2022/03/15 07:13:42;;;;;;;16.10;6.43;;;;;;;5.65;100.00;101497.06;5046367;28;20028;-62
2022/03/15 07:16:07;;;;;;;10.00;6.13;;;;;;;5.73;100.00;101496.97;5045542;28;20024;-61
2022/03/15 07:18:32;;;;;;;9.35;6.00;;;;;;;5.80;100.00;101501.22;5047135;28;20028;-61
2022/03/15 07:20:58;;;;;;;8.82;5.80;;;;;;;5.87;100.00;101492.47;5047090;28;20025;-61
2022/03/15 07:23:23;;;;;;;11.85;6.07;;;;;;;5.94;100.00;101494.13;5045846;28;20137;-62
2022/03/15 07:25:48;;;;;;;12.15;6.03;;;;;;;6.00;100.00;101487.94;5061472;28;20022;-61
2022/03/15 07:28:14;;;;;;;8.52;5.80;;;;;;;6.09;100.00;101493.88;5086180;28;20740;-62
2022/03/15 07:30:39;;;;;;;10.18;7.32;;;;;;;6.18;100.00;101485.91;5083384;28;20028;-62
2022/03/15 07:33:05;;;;;;;10.15;5.80;;;;;;;6.05;100.00;101442.63;5058258;28;20044;-62
2022/03/15 07:35:30;;;;;;;15.02;8.77;;;;;;;6.37;100.00;101488.25;5075937;28;20027;-62
2022/03/15 07:37:56;;;;;;;13.90;10.05;;;;;;;6.46;100.00;101482.88;5081269;28;20783;-62
2022/03/15 07:40:23;;;;;;;11.75;7.43;;;;;;;6.52;100.00;101482.81;5080355;28;20502;-62
2022/03/15 07:42:49;;;;;;;12.70;6.63;;;;;;;6.60;100.00;101483.53;5080806;28;20042;-62
2022/03/15 07:45:15;;;;;;;14.88;7.03;;;;;;;6.65;100.00;101479.13;5077418;28;20135;-62
2022/03/15 07:47:40;;;;;;;10.48;6.72;;;;;;;6.74;100.00;101478.94;5082010;28;20745;-61
2022/03/15 07:50:06;;;;;;;11.35;6.72;;;;;;;6.80;100.00;101473.63;5081222;28;20035;-62
2022/03/15 07:52:32;;;;;;;21.17;7.47;;;;;;;6.89;100.00;101468.25;5077432;28;20024;-62
2022/03/15 07:54:57;;;;;;;18.17;6.90;;;;;;;6.97;100.00;101466.34;5081623;28;20497;-62
2022/03/15 07:57:22;;;;;;;11.02;7.03;;;;;;;7.05;100.00;101468.81;5088981;28;20028;-62
2022/03/15 07:59:48;;;;;;;15.00;6.60;;;;;;;7.12;100.00;101460.84;5095525;28;20023;-62
2022/03/15 08:02:15;;;;;;;15.82;6.90;;;;;;;7.14;100.00;101447.72;5081185;28;20175;-62
2022/03/15 08:04:42;;;;;;;10.35;6.57;;;;;;;7.25;100.00;101455.38;5083510;28;20052;-62
2022/03/15 08:07:07;;;;;;;13.48;6.38;;;;;;;7.31;100.00;101450.00;5095057;28;20385;-62
2022/03/15 08:09:33;;;;;;;7.55;5.93;;;;;;;7.37;100.00;101448.13;5110091;28;20103;-62
2022/03/15 08:11:58;;;;;;;10.05;5.80;;;;;;;7.43;100.00;101450.66;5093771;28;20546;-62
2022/03/15 08:14:24;;;;;;;11.02;5.53;;;;;;;7.47;100.00;101447.06;5095362;28;20394;-62
2022/03/15 08:16:49;;;;;;;9.68;5.28;;;;;;;7.56;100.00;101440.78;5094423;28;20028;-62
2022/03/15 08:19:14;;;;;;;11.20;5.55;;;;;;;7.60;100.00;101432.81;5093968;28;20467;-62
2022/03/15 08:21:40;;;;;;;12.25;5.75;;;;;;;7.68;100.00;101440.50;5093555;28;20156;-62
2022/03/15 08:24:06;;;;;;;14.27;5.93;;;;;;;7.71;100.00;101440.44;5075843;28;20034;-62
2022/03/15 08:26:31;;;;;;;13.68;5.40;;;;;;;7.73;100.00;101446.53;5093888;28;20031;-62
2022/03/15 08:28:56;;;;;;;11.75;4.95;;;;;;;7.71;100.00;101435.22;5091299;28;20095;-62
2022/03/15 08:31:22;;;;;;;23.65;5.78;;;;;;;7.73;100.00;101438.69;5093842;28;20028;-62
2022/03/15 08:33:47;;;;;;;8.85;4.72;;;;;;;7.75;100.00;101441.25;5093015;28;20020;-62
2022/03/15 08:36:13;;;;;;;9.32;5.30;;;;;;;7.78;100.00;101446.41;5108604;28;20432;-62
2022/03/15 08:38:39;;;;;;;10.23;5.57;;;;;;;7.76;100.00;101443.84;5092901;28;20423;-62
2022/03/15 08:41:06;;;;;;;7.90;5.20;;;;;;;7.76;100.00;101449.06;5091735;28;20024;-62
2022/03/15 08:43:31;;;;;;;9.43;4.78;;;;;;;7.72;100.00;101437.81;5092227;28;20031;-62
2022/03/15 08:45:57;;;;;;;6.97;4.53;;;;;;;7.75;100.00;101431.66;5092390;28;20028;-62
2022/03/15 08:48:22;;;;;;;12.40;4.93;;;;;;;7.79;100.00;101435.06;5093552;28;20038;-62
2022/03/15 08:50:48;;;;;;;9.45;4.55;;;;;;;7.82;100.00;101429.75;5093447;28;20024;-62
2022/03/15 08:53:14;;;;;;;12.77;4.25;;;;;;;7.83;100.00;101434.97;5074746;28;20051;-62
2022/03/15 08:55:39;;;;;;;10.60;4.95;;;;;;;7.88;100.00;101430.47;5091407;28;20024;-62
2022/03/15 08:58:05;;;;;;;10.32;4.57;;;;;;;7.93;100.00;101426.00;5090908;28;20128;-62
2022/03/15 09:00:30;;;;;;;8.18;4.57;;;;;;;8.02;100.00;101424.91;5092252;28;20800;-62
2022/03/15 09:02:55;;;;;;;7.68;4.80;;;;;;;8.09;100.00;101427.38;5091727;28;20052;-62
2022/03/15 09:05:21;;;;;;;12.18;5.18;;;;;;;8.10;100.00;101423.00;5091520;28;20493;-62
2022/03/15 09:07:50;;;;;;;5.60;4.18;;;;;;;8.01;100.00;101416.22;5091459;28;20077;-62
2022/03/15 09:10:16;;;;;;;8.38;4.85;;;;;;;7.92;100.00;101421.66;5090133;28;20024;-62
2022/03/15 09:12:41;;;;;;;10.00;5.22;;;;;;;7.88;100.00;101417.38;5091448;28;20836;-62
2022/03/15 09:15:07;;;;;;;9.73;5.80;;;;;;;7.81;100.00;101412.34;5092457;28;20077;-62
2022/03/15 09:17:32;;;;;;;10.10;5.88;;;;;;;7.74;100.00;101408.97;5090530;28;20032;-62
2022/03/15 09:19:57;;;;;;;7.13;4.97;;;;;;;7.75;100.00;101400.25;5091149;28;20024;-62
2022/03/15 09:22:23;;;;;;;10.32;4.88;;;;;;;7.86;100.00;101413.09;5090063;28;20546;-62
2022/03/15 09:24:48;;;;;;;12.93;5.05;;;;;;;7.93;100.00;101410.31;5079093;28;20086;-62
2022/03/15 09:27:14;;;;;;;9.48;4.65;;;;;;;8.01;100.00;101408.34;5089918;28;20032;-62
2022/03/15 09:29:39;;;;;;;11.93;5.45;;;;;;;8.10;100.00;101407.28;5090740;28;20103;-62
2022/03/15 09:32:05;;;;;;;11.65;6.15;;;;;;;8.11;100.00;101409.84;5091591;28;20123;-62
2022/03/15 09:34:31;;;;;;;11.55;6.55;;;;;;;8.14;100.00;101404.53;5090034;28;20027;-62
2022/03/15 09:36:59;;;;;;;10.45;5.75;;;;;;;8.11;100.00;101403.78;5090753;28;20031;-62
2022/03/15 09:39:25;;;;;;;11.50;5.20;;;;;;;8.11;100.00;101407.25;5088385;28;20039;-62
2022/03/15 09:41:53;;;;;;;9.98;5.40;;;;;;;8.14;100.00;101401.94;5088301;28;20036;-62
2022/03/15 09:44:19;;;;;;;11.07;5.55;;;;;;;8.10;100.00;101384.59;5087108;28;20054;-62
2022/03/15 09:46:50;;;;;;;8.23;5.40;;;;;;;8.15;100.00;101385.34;5085247;28;20036;-62
2022/03/15 09:49:17;;;;;;;12.15;5.97;;;;;;;8.26;100.00;101392.06;5089460;28;20493;-62
2022/03/15 09:51:42;;;;;;;13.23;6.10;;;;;;;8.34;100.00;101392.78;5091973;28;20039;-62
2022/03/15 09:54:08;;;;;;;11.75;6.53;;;;;;;8.41;100.00;101389.13;5091511;28;20028;-61
2022/03/15 09:56:39;;;;;;;10.65;6.05;;;;;;;8.49;100.00;101390.63;5091720;28;20032;-62
2022/03/15 09:59:16;;;;;;;13.30;6.38;;;;;;;8.58;100.00;101394.78;5091552;28;20048;-61
2022/03/15 10:01:46;;;;;;;12.40;5.82;;;;;;;8.71;100.00;101396.19;5090974;28;20483;-63
2022/03/15 10:04:11;;;;;;;15.80;6.00;;;;;;;8.83;100.00;101390.59;5092130;28;20024;-62
2022/03/15 10:06:37;;;;;;;11.95;6.35;;;;;;;8.85;100.00;101387.94;5092312;28;20030;-62
2022/03/15 10:09:07;;;;;;;11.73;5.40;;;;;;;8.89;100.00;101390.41;5090533;28;20034;-62
2022/03/15 10:11:32;;;;;;;11.23;5.47;;;;;;;8.97;100.00;101392.84;5089389;28;20466;-62
2022/03/15 10:13:59;;;;;;;10.98;5.50;;;;;;;8.99;100.00;101384.03;5090390;28;20042;-62
2022/03/15 10:16:35;;;;;;;10.90;5.55;;;;;;;8.94;100.00;101383.31;5090210;28;20223;-62
2022/03/15 10:19:02;;;;;;;9.50;5.35;;;;;;;8.85;100.00;101382.72;5089221;28;20043;-62
2022/03/15 10:21:53;;;;;;;10.02;5.47;;;;;;;8.83;100.00;101380.13;5091800;28;20084;-62
2022/03/15 10:24:27;;;;;;;11.15;6.38;;;;;;;8.90;100.00;101375.56;5088803;28;20026;-62
2022/03/15 10:26:55;;;;;;;9.05;5.22;;;;;;;8.95;100.00;101377.19;5091213;28;20351;-62
2022/03/15 10:29:27;;;;;;;7.53;4.90;;;;;;;8.96;100.00;101376.25;5106789;28;20035;-62
2022/03/15 10:31:53;;;;;;;9.90;5.35;;;;;;;9.00;100.00;101377.88;5091385;28;20107;-62
2022/03/15 10:34:20;;;;;;;9.27;5.40;;;;;;;9.02;100.00;101376.06;5090128;28;20531;-62
2022/03/15 10:36:47;;;;;;;9.57;5.22;;;;;;;9.00;100.00;101356.91;5089862;28;20024;-62
2022/03/15 10:39:16;;;;;;;8.68;5.32;;;;;;;9.02;100.00;101360.34;5089750;28;20099;-62
2022/03/15 10:41:42;;;;;;;7.72;5.00;;;;;;;8.91;100.00;101325.75;5089981;28;20139;-62
2022/03/15 10:44:25;;;;;;;9.32;5.78;;;;;;;9.19;100.00;101358.09;5089931;28;20027;-62
2022/03/15 10:47:01;;;;;;;10.23;4.82;;;;;;;9.24;100.00;101347.50;5071828;28;20024;-62
2022/03/15 10:49:28;;;;;;;8.60;5.32;;;;;;;9.27;100.00;101360.50;5089514;28;20106;-62
2022/03/15 10:51:53;;;;;;;8.77;5.40;;;;;;;9.15;100.00;101332.03;5068500;28;20020;-62
2022/03/15 10:54:22;;;;;;;9.35;6.30;;;;;;;9.27;100.00;101349.16;5091042;28;20040;-62
2022/03/15 10:56:53;;;;;;;9.48;5.22;;;;;;;9.22;100.00;101355.41;5090401;28;20065;-62
2022/03/15 10:59:20;;;;;;;12.40;6.30;;;;;;;9.29;100.00;101355.22;5088134;28;20077;-62
2022/03/15 11:01:48;;;;;;;11.55;6.47;;;;;;;9.33;100.00;101355.06;5086707;28;20107;-61
2022/03/15 11:04:13;;;;;;;15.27;7.35;;;;;;;9.37;100.00;101353.22;5082657;28;20028;-62
2022/03/15 11:06:44;;;;;;;12.95;6.10;;;;;;;9.43;100.00;101355.69;5086757;28;20027;-62
2022/03/15 11:09:23;;;;;;;9.98;6.50;;;;;;;9.46;100.00;101345.94;5086892;28;20024;-62
2022/03/15 11:12:06;;;;;;;11.25;6.25;;;;;;;9.51;100.00;101343.19;5084904;28;20016;-63
2022/03/15 11:14:54;;;;;;;10.27;6.57;;;;;;;9.55;100.00;101336.94;5082118;28;20031;-61